Nearby METAR Reports

 

KADS - Dallas/Addison, Texas, USA
Distance from station: SSW 10mi, 16km
Updated: Wed, 22-Mar-2017 10:55pm CDT
Clear
Clear
 Wind from ESE
Wind: ESE 13 mph , 20 km/h
Temperature: 70°F , 21°C
Dew Point: 63°F , 17°C
Humidity: 78%
Barometer: 30.10 inHg , 1019.3 hPa
Clouds: Clear
Visibility: 10 miles , 16 km
2017/03/23 03:55 KADS 230355Z AUTO 12011KT 10SM CLR 21/17 A3010 RMK AO2 T02130166
KTKI - Mckinney, Texas, USA
Distance from station: ENE 11mi, 18km
Updated: Wed, 22-Mar-2017 10:53pm CDT
Clear
Clear
 Wind from SE
Wind: SE 8 mph , 13 km/h
Temperature: 68°F , 20°C
Dew Point: 63°F , 17°C
Humidity: 83%
Barometer: 30.09 inHg , 1019 hPa
Clouds: Clear
Visibility: 10 miles , 16 km
2017/03/23 03:53 KTKI 230353Z AUTO 14007KT 10SM CLR 20/17 A3009 RMK AO2 SLP189 T02000167
 
KDAL - Dallas/Love Fld, Texas, USA
Distance from station: SSW 18mi, 30km
Updated: Wed, 22-Mar-2017 10:53pm CDT
Clear
Clear
 Wind from SE
Wind: SE 13 mph , 20 km/h
Temperature: 72°F , 22°C
Dew Point: 63°F , 17°C
Humidity: 73%
Barometer: 30.08 inHg , 1018.6 hPa
Clouds: Clear
Visibility: 10 miles , 16 km
2017/03/23 03:53 KDAL 230353Z 13011KT 10SM CLR 22/17 A3008 RMK AO2 SLP180 T02170167 $
KDFW - Dallas/Ft Worth, Texas, USA
Distance from station: SW 21mi, 34km
Updated: Wed, 22-Mar-2017 10:53pm CDT
Clear
Clear
 Wind from SE
Wind: SE 10 mph , 17 km/h
Temperature: 72°F , 22°C
Dew Point: 64°F , 18°C
Humidity: 78%
Barometer: 30.06 inHg , 1017.9 hPa
Clouds: Clear
Visibility: 10 miles , 16 km
2017/03/23 03:53 KDFW 230353Z 13009KT 10SM CLR 22/18 A3006 RMK AO2 SLP173 T02170178
 
KF46 - Rockwall, Texas, USA
Distance from station: ESE 22mi, 35km
Updated: Wed, 22-Mar-2017 10:55pm CDT
Clear
Clear
 Wind from ESE
Wind: ESE 9 mph , 15 km/h
Temperature: 68°F , 20°C
Dew Point: 61°F , 16°C
Humidity: 78%
Barometer: 30.10 inHg , 1019.3 hPa
Clouds: Clear
Visibility: 10 miles , 16 km
2017/03/23 03:55 KF46 230355Z AUTO 12008KT 10SM CLR 20/16 A3010 RMK AO2 T01960161
KDTO - Denton, Texas, USA
Distance from station: WNW 27mi, 43km
Updated: Wed, 22-Mar-2017 10:53pm CDT
Clear
Clear
 Wind from SE
Wind: SE 10 mph , 17 km/h
Temperature: 70°F , 21°C
Dew Point: 61°F , 16°C
Humidity: 73%
Barometer: 30.07 inHg , 1018.3 hPa
Clouds: Clear
Visibility: 10 miles , 16 km
2017/03/23 03:53 KDTO 230353Z AUTO 14009KT 10SM CLR 21/16 A3007 RMK AO2 SLP176 T02060161
 
KHQZ - Mesquite, Texas, USA
Distance from station: SSE 28mi, 44km
Updated: Wed, 22-Mar-2017 10:55pm CDT
Clear
Clear
 Wind from ESE
Wind: ESE 7 mph , 11 km/h
Temperature: 66°F , 19°C
Dew Point: 63°F , 17°C
Humidity: 88%
Barometer: 30.09 inHg , 1019 hPa
Clouds: Clear
Visibility: 10 miles , 16 km
2017/03/23 03:55 KHQZ 230355Z AUTO 12006KT 10SM CLR 19/17 A3009 RMK AO1 T01920165
KRBD - Dallas/Redbird, Texas, USA
Distance from station: SSW 30mi, 48km
Updated: Wed, 22-Mar-2017 10:53pm CDT
Clear
Clear
 Wind from ESE
Wind: ESE 7 mph , 11 km/h
Temperature: 68°F , 20°C
Dew Point: 63°F , 17°C
Humidity: 83%
Barometer: 30.08 inHg , 1018.6 hPa
Clouds: Clear
Visibility: 10 miles , 16 km
2017/03/23 03:53 KRBD 230353Z AUTO 12006KT 10SM CLR 20/17 A3008 RMK AO2 SLP180 T02000172
 
KGPM - Grand Prairie, Texas, USA
Distance from station: SSW 33mi, 53km
Updated: Wed, 22-Mar-2017 10:55pm CDT
Clear
Clear
 Wind from ESE
Wind: ESE 3 mph , 6 km/h
Temperature: 70°F , 21°C
Dew Point: 59°F , 15°C
Humidity: 69%
Barometer: 30.09 inHg , 1019 hPa
Clouds: Clear
Visibility: 10 miles , 16 km
2017/03/23 03:55 KGPM 230355Z AUTO 11003KT 10SM CLR 21/15 A3009 RMK AO2 T02100147
KAFW - Ft Worth/Allianc, Texas, USA
Distance from station: WSW 34mi, 55km
Updated: Wed, 22-Mar-2017 10:53pm CDT
Clear
Clear
 Wind from SSE
Wind: SSE 9 mph , 15 km/h
Temperature: 72°F , 22°C
Dew Point: 59°F , 15°C
Humidity: 65%
Barometer: 30.06 inHg , 1017.9 hPa
Clouds: Clear
Visibility: 10 miles , 16 km
2017/03/23 03:53 KAFW 230353Z 15008KT 10SM CLR 22/15 A3006 RMK AO2 SLP170 T02220150
 
KLNC - Lancaster, Texas, USA
Distance from station: S 36mi, 58km
Updated: Wed, 22-Mar-2017 10:55pm CDT
Clear
Clear
 Wind from SE
Wind: SE 5 mph , 7 km/h
Temperature: 64°F , 18°C
Dew Point: 61°F , 16°C
Humidity: 88%
Barometer: 30.10 inHg , 1019.3 hPa
Clouds: Clear
Visibility: 10 miles , 16 km
2017/03/23 03:55 KLNC 230355Z AUTO 13004KT 10SM CLR 18/16 A3010 RMK AO2 T01830160
KGKY - Arlington, Texas, USA
Distance from station: SSW 36mi, 59km
Updated: Wed, 22-Mar-2017 10:53pm CDT
Clear
Clear
 Wind from SE
Wind: SE 9 mph , 15 km/h
Temperature: 70°F , 21°C
Dew Point: 59°F , 15°C
Humidity: 69%
Barometer: 30.07 inHg , 1018.3 hPa
Clouds: Clear
Visibility: 10 miles , 16 km
2017/03/23 03:53 KGKY 230353Z AUTO 13008KT 10SM CLR 21/15 A3007 RMK AO2 SLP177 T02060150
 
KTRL - Terrell, Texas, USA
Distance from station: SE 39mi, 63km
Updated: Wed, 22-Mar-2017 10:53pm CDT
Clear
Clear
 Wind from ESE
Wind: ESE 6 mph , 9 km/h
Temperature: 66°F , 19°C
Dew Point: 61°F , 16°C
Humidity: 83%
Barometer: 30.10 inHg , 1019.3 hPa
Clouds: Clear
Visibility: 10 miles , 16 km
2017/03/23 03:53 KTRL 230353Z AUTO 12005KT 10SM CLR 19/16 A3010 RMK AO2 SLP188 T01940156
KGVT - Greenville/Major, Texas, USA
Distance from station: E 40mi, 64km
Updated: Wed, 22-Mar-2017 10:55pm CDT
Clear
Clear
 Wind from SE
Wind: SE 3 mph , 6 km/h
Temperature: 61°F , 16°C
Dew Point: 55°F , 13°C
Humidity: 83%
Barometer: 30.10 inHg , 1019.3 hPa
Clouds: Clear
Visibility: 10 miles , 16 km
2017/03/23 03:55 KGVT 230355Z AUTO 13003KT 10SM CLR 16/13 A3010 RMK AO2
 
KFTW - Fort Worth, Texas, USA
Distance from station: WSW 40mi, 65km
Updated: Wed, 22-Mar-2017 10:53pm CDT
Clear
Clear
 Wind from SSE
Wind: SSE 13 mph , 20 km/h
Temperature: 73°F , 23°C
Dew Point: 57°F , 14°C
Humidity: 57%
Barometer: 30.06 inHg , 1017.9 hPa
Clouds: Clear
Visibility: 10 miles , 16 km
2017/03/23 03:53 KFTW 230353Z 15011KT 10SM CLR 23/14 A3006 RMK AO2 SLP172 T02280144
KGYI - Sherman/Denison, Texas, USA
Distance from station: N 43mi, 69km
Updated: Wed, 22-Mar-2017 10:55pm CDT
Clear
Clear
 Wind from ESE
Wind: ESE 9 mph , 15 km/h
Temperature: 64°F , 18°C
Dew Point: 61°F , 16°C
Humidity: 88%
Barometer: 30.10 inHg , 1019.3 hPa
Clouds: Clear
Visibility: 10 miles , 16 km
2017/03/23 03:55 KGYI 230355Z AUTO 12008KT 10SM CLR 18/16 A3010 RMK AO2 T01820160
 
KNFW - Fort Worth Nas, Texas, USA
Distance from station: WSW 45mi, 73km
Updated: Wed, 22-Mar-2017 10:52pm CDT
Clear
Clear
 Wind from SE
Wind: SE 10 mph , 17 km/h
Temperature: 73°F , 23°C
Dew Point: 59°F , 15°C
Humidity: 61%
Barometer: 30.07 inHg , 1018.3 hPa
Clouds: Clear
Visibility: 10 miles , 16 km
2017/03/23 03:52 KNFW 230352Z 14009KT 10SM CLR 23/15 A3007 RMK AO2 SLP164 T02330150 $
KGLE - Gainesville, Texas, USA
Distance from station: NW 46mi, 74km
Updated: Wed, 22-Mar-2017 10:55pm CDT
Clear
Clear
 Wind from SE
Wind: SE 16 mph , 26 km/h, Gust: 21 mph , 33 km/h
Temperature: 68°F , 20°C
Dew Point: 61°F , 16°C
Humidity: 78%
Barometer: 30.09 inHg , 1019 hPa
Clouds: Clear
Visibility: 10 miles , 16 km
2017/03/23 03:55 KGLE 230355Z AUTO 14014G18KT 10SM CLR 20/16 A3009 RMK AO2 T01950160
 
KJWY - Midlothian/Wax, Texas, USA
Distance from station: SSW 46mi, 74km
Updated: Wed, 22-Mar-2017 10:55pm CDT
Clear
Clear
 Wind from SE
Wind: SE 3 mph , 6 km/h
Temperature: 68°F , 20°C
Dew Point: 61°F , 16°C
Humidity: 78%
Barometer: 30.10 inHg , 1019.3 hPa
Clouds: Clear
Visibility: 10 miles , 16 km
2017/03/23 03:55 KJWY 230355Z AUTO 14003KT 10SM CLR 20/16 A3010 RMK AO2 T01980155
KFWS - Fort Worth/88d, Texas, USA
Distance from station: SW 49mi, 79km
Updated: Wed, 22-Mar-2017 10:55pm CDT
Clear
Clear
 Wind from SE
Wind: SE 8 mph , 13 km/h
Temperature: 68°F , 20°C
Dew Point: 59°F , 15°C
Humidity: 73%
Barometer: 30.09 inHg , 1019 hPa
Clouds: Clear
Visibility: 10 miles , 16 km
2017/03/23 03:55 KFWS 230355Z AUTO 14007KT 10SM CLR 20/15 A3009 RMK AO2 T02010147